Time;durP1;ratioP1;P1;durP2;ratioP2;P2;SDS_P1;SDS_P2;PMS_P1;PMS_P2;Temp;Humidity;BMP_temperature;BMP_pressure;BME280_temperature;BME280_humidity;BME280_pressure;Samples;Min_cycle;Max_cycle;Signal;HPM_P1;HPM_P2
2022/07/26 00:01:58;;;;;;;6.50;1.77;;;;;;;16.49;80.14;101180.69;5120473;27;20448;-85
2022/07/26 00:04:23;;;;;;;8.32;2.63;;;;;;;16.51;80.47;101191.38;5138794;27;20023;-85
2022/07/26 00:06:49;;;;;;;6.37;1.50;;;;;;;16.50;80.55;101184.22;5138503;27;20530;-85
2022/07/26 00:09:14;;;;;;;8.73;2.13;;;;;;;16.51;80.41;101180.44;5120294;27;20497;-85
2022/07/26 00:11:40;;;;;;;6.37;1.87;;;;;;;16.53;80.47;101188.41;5103544;27;20031;-85
2022/07/26 00:14:07;;;;;;;8.82;2.53;;;;;;;16.49;80.43;101186.16;5138595;27;20031;-85
2022/07/26 00:16:33;;;;;;;5.77;1.93;;;;;;;16.48;80.58;101184.47;5138881;27;20114;-85
2022/07/26 00:18:58;;;;;;;6.00;1.75;;;;;;;16.48;80.67;101187.22;5137556;27;20035;-85
2022/07/26 00:21:24;;;;;;;6.60;2.20;;;;;;;16.46;80.76;101183.91;5154480;27;20031;-85
2022/07/26 00:23:49;;;;;;;10.43;2.13;;;;;;;16.46;81.11;101178.44;5119427;27;20031;-85
2022/07/26 00:26:15;;;;;;;7.30;1.77;;;;;;;16.47;81.19;101185.56;5119947;27;20084;-85
2022/07/26 00:28:40;;;;;;;6.33;1.97;;;;;;;16.43;81.07;101181.66;5119899;27;20027;-85
2022/07/26 00:31:06;;;;;;;8.35;2.30;;;;;;;16.42;81.45;101190.94;5137997;27;20461;-85
2022/07/26 00:33:32;;;;;;;9.73;2.00;;;;;;;16.43;81.53;101192.63;5119773;27;20088;-85
2022/07/26 00:35:58;;;;;;;8.35;1.83;;;;;;;16.41;81.34;101191.19;5119771;27;20027;-85
2022/07/26 00:38:23;;;;;;;6.03;1.80;;;;;;;16.39;81.76;101185.97;5119583;27;20080;-85
2022/07/26 00:40:48;;;;;;;10.45;2.28;;;;;;;16.37;81.98;101190.03;5137637;27;20366;-85
2022/07/26 00:43:14;;;;;;;10.67;2.10;;;;;;;16.40;81.72;101192.28;5154355;27;20027;-85
2022/07/26 00:45:40;;;;;;;6.60;2.03;;;;;;;16.42;81.82;101199.16;5119561;27;20478;-85
2022/07/26 00:48:05;;;;;;;9.13;2.13;;;;;;;16.44;81.79;101196.19;5138298;27;20038;-85
2022/07/26 00:50:31;;;;;;;6.67;2.10;;;;;;;16.44;81.43;101201.66;5102523;27;20364;-85
2022/07/26 00:52:56;;;;;;;6.90;2.20;;;;;;;16.43;81.92;101202.72;5119625;27;20106;-85
2022/07/26 00:55:22;;;;;;;6.45;1.95;;;;;;;16.43;81.98;101191.78;5119608;27;20133;-85
2022/07/26 00:57:48;;;;;;;8.60;1.90;;;;;;;16.45;82.16;101200.59;5138217;27;20059;-85
2022/07/26 01:00:20;;;;;;;9.52;1.85;;;;;;;16.46;82.07;101200.34;5102417;27;20027;-85
2022/07/26 01:02:45;;;;;;;8.82;2.20;;;;;;;16.47;82.35;101191.03;5137742;27;20019;-85
2022/07/26 01:05:11;;;;;;;7.65;2.20;;;;;;;16.51;82.75;101190.56;5137577;27;20035;-85
2022/07/26 01:07:38;;;;;;;5.80;1.80;;;;;;;16.51;82.33;101194.13;5137665;27;20382;-85
2022/07/26 01:10:07;;;;;;;10.65;2.38;;;;;;;16.51;82.69;101187.81;5119431;27;20027;-85
2022/07/26 01:12:33;;;;;;;10.90;2.30;;;;;;;16.53;82.86;101194.69;5119282;27;20121;-85
2022/07/26 01:14:58;;;;;;;9.57;2.70;;;;;;;16.53;83.03;101194.69;5119336;27;20179;-85
2022/07/26 01:17:24;;;;;;;8.57;1.90;;;;;;;16.54;82.94;101193.63;5119194;27;20030;-85
2022/07/26 01:19:49;;;;;;;8.48;2.10;;;;;;;16.55;83.09;101195.28;5119076;27;20035;-85
2022/07/26 01:22:14;;;;;;;13.90;2.20;;;;;;;16.54;83.25;101181.84;5101867;27;20023;-85
2022/07/26 01:24:40;;;;;;;8.77;2.30;;;;;;;16.57;82.84;101181.34;5119308;27;20112;-85
2022/07/26 01:27:05;;;;;;;11.47;2.40;;;;;;;16.53;83.35;101186.47;5101818;27;20037;-85
2022/07/26 01:29:31;;;;;;;13.77;2.63;;;;;;;16.53;83.71;101175.53;5137671;27;20272;-84
2022/07/26 01:31:56;;;;;;;6.47;2.20;;;;;;;16.57;83.34;101181.34;5118956;27;20103;-85
2022/07/26 01:34:22;;;;;;;8.03;2.00;;;;;;;16.56;83.76;101176.94;5085589;27;20035;-85
2022/07/26 01:36:47;;;;;;;10.20;2.70;;;;;;;16.50;85.78;101170.53;5153042;27;20023;-85
2022/07/26 01:39:13;;;;;;;15.55;3.20;;;;;;;16.33;86.86;101170.53;5118671;27;20447;-85
2022/07/26 01:41:38;;;;;;;11.47;2.93;;;;;;;16.27;87.34;101177.00;5101911;27;20467;-85
2022/07/26 01:44:04;;;;;;;6.80;2.60;;;;;;;16.27;87.46;101172.34;5136215;27;20074;-85
2022/07/26 01:46:30;;;;;;;8.82;2.83;;;;;;;16.34;87.49;101177.66;5135944;27;20059;-85
2022/07/26 01:48:55;;;;;;;10.90;2.63;;;;;;;16.39;87.06;101194.19;5101663;27;20411;-84
2022/07/26 01:51:21;;;;;;;11.20;3.43;;;;;;;16.44;87.07;101182.50;5084719;27;20352;-84
2022/07/26 01:53:46;;;;;;;13.38;2.92;;;;;;;16.45;86.76;101184.16;5083975;27;20050;-85
2022/07/26 01:56:13;;;;;;;15.57;3.30;;;;;;;16.47;87.04;101187.47;5118079;27;20130;-85
2022/07/26 01:58:39;;;;;;;12.40;2.92;;;;;;;16.53;87.02;101197.44;5118290;27;20167;-85
2022/07/26 02:01:05;;;;;;;14.20;3.23;;;;;;;16.57;86.96;101192.31;5119028;27;20034;-85
2022/07/26 02:03:31;;;;;;;21.40;2.95;;;;;;;16.56;87.04;101190.63;5118538;27;20028;-85
2022/07/26 02:05:56;;;;;;;7.17;2.40;;;;;;;16.58;87.05;101191.22;5117732;27;20393;-85
2022/07/26 02:08:22;;;;;;;14.73;3.38;;;;;;;16.56;87.17;101191.47;5118007;27;20107;-86
2022/07/26 02:10:59;;;;;;;12.60;2.70;;;;;;;16.59;87.32;101190.97;5136353;27;20035;-85
2022/07/26 02:13:35;;;;;;;12.93;3.30;;;;;;;16.59;87.06;101199.19;5136652;27;20031;-85
2022/07/26 02:16:03;;;;;;;12.43;2.97;;;;;;;16.59;87.29;101187.41;5135629;27;20031;-85
2022/07/26 02:18:29;;;;;;;12.07;2.80;;;;;;;16.60;87.71;101194.56;5118158;27;20027;-85
2022/07/26 02:20:55;;;;;;;12.88;3.22;;;;;;;16.60;87.23;101194.56;5117723;27;20439;-85
2022/07/26 02:23:21;;;;;;;11.00;2.97;;;;;;;16.61;87.61;101196.22;5117648;27;20075;-85
2022/07/26 02:25:47;;;;;;;14.73;2.95;;;;;;;16.59;87.65;101198.34;5136531;27;20058;-85
2022/07/26 02:28:14;;;;;;;9.50;3.00;;;;;;;16.58;88.10;101197.53;5100608;27;20059;-85
2022/07/26 02:30:40;;;;;;;13.05;3.28;;;;;;;16.59;87.72;101198.34;5117222;27;20031;-85
2022/07/26 02:33:05;;;;;;;14.07;3.53;;;;;;;16.58;88.15;101192.06;5117585;27;20023;-85
2022/07/26 02:35:31;;;;;;;14.68;3.13;;;;;;;16.56;88.19;101205.16;5100804;27;20468;-85
2022/07/26 02:38:08;;;;;;;13.20;3.70;;;;;;;16.58;87.98;101199.44;5118063;27;20356;-85
2022/07/26 02:40:35;;;;;;;17.30;3.67;;;;;;;16.56;88.62;101207.91;5117692;27;20023;-85
2022/07/26 02:43:01;;;;;;;11.20;3.17;;;;;;;16.58;88.70;101207.66;5117426;27;20123;-85
2022/07/26 02:45:27;;;;;;;14.15;3.22;;;;;;;16.60;88.65;101202.78;5117182;27;20379;-85
2022/07/26 02:47:54;;;;;;;11.77;3.30;;;;;;;16.59;89.10;101212.88;5100525;27;20027;-85
2022/07/26 02:50:21;;;;;;;17.45;3.83;;;;;;;16.59;89.05;101212.06;5134119;27;20382;-84
2022/07/26 02:52:47;;;;;;;18.27;4.37;;;;;;;16.62;89.48;101214.28;5135375;27;20038;-84
2022/07/26 02:55:18;;;;;;;13.10;3.60;;;;;;;16.63;89.65;101213.22;5116774;27;20023;-85
2022/07/26 02:57:43;;;;;;;17.73;4.18;;;;;;;16.69;89.09;101219.63;5135417;27;20107;-85
2022/07/26 03:00:11;;;;;;;15.13;3.50;;;;;;;16.66;89.58;101218.22;5099721;27;20474;-84
2022/07/26 03:02:37;;;;;;;12.13;3.65;;;;;;;16.66;89.50;101221.78;5099720;27;20027;-85
2022/07/26 03:05:04;;;;;;;14.90;3.60;;;;;;;16.65;89.80;101222.88;5116835;27;20027;-85
2022/07/26 03:07:29;;;;;;;24.63;4.47;;;;;;;16.65;89.85;101222.03;5113354;28;20031;-85
2022/07/26 03:09:55;;;;;;;12.17;3.73;;;;;;;16.65;89.91;101228.34;5113152;28;20027;-85
2022/07/26 03:12:20;;;;;;;20.17;3.80;;;;;;;16.66;90.06;101230.00;5081905;27;20028;-85
2022/07/26 03:14:45;;;;;;;17.17;3.83;;;;;;;16.65;90.16;101231.09;5116567;27;20476;-85
2022/07/26 03:17:11;;;;;;;12.73;3.13;;;;;;;16.66;90.27;101240.94;5099569;27;20031;-85
2022/07/26 03:19:36;;;;;;;18.50;3.97;;;;;;;16.67;90.34;101236.31;5116526;27;20031;-85
2022/07/26 03:22:02;;;;;;;18.83;4.87;;;;;;;16.68;90.25;101240.69;5100133;27;20895;-84
2022/07/26 03:24:27;;;;;;;16.47;4.30;;;;;;;16.69;90.57;101242.38;5099969;27;20459;-84
2022/07/26 03:26:53;;;;;;;13.60;3.60;;;;;;;16.71;90.02;101239.38;5099187;27;20125;-85
2022/07/26 03:29:18;;;;;;;18.40;4.10;;;;;;;16.70;90.42;101240.44;5082730;27;20035;-85
2022/07/26 03:31:43;;;;;;;12.25;3.80;;;;;;;16.69;90.43;101242.38;5099286;27;20095;-85
2022/07/26 03:34:09;;;;;;;17.00;4.27;;;;;;;16.69;90.59;101247.03;5099041;27;20034;-85
2022/07/26 03:36:34;;;;;;;12.70;4.27;;;;;;;16.64;90.77;101251.34;5133988;27;20026;-85
2022/07/26 03:38:59;;;;;;;22.17;4.73;;;;;;;16.64;90.84;101256.00;5099489;27;20031;-85
2022/07/26 03:41:25;;;;;;;17.08;4.20;;;;;;;16.62;91.07;101256.25;5116279;28;20039;-85
2022/07/26 03:43:50;;;;;;;17.63;4.70;;;;;;;16.59;91.55;101259.44;5099300;28;20386;-85
2022/07/26 03:46:16;;;;;;;15.97;4.50;;;;;;;16.59;91.74;101258.63;5099292;28;20509;-85
2022/07/26 03:48:41;;;;;;;21.23;5.00;;;;;;;16.58;91.91;101254.22;5151354;27;20031;-85
2022/07/26 03:51:06;;;;;;;13.37;4.53;;;;;;;16.57;92.09;101252.56;5133170;28;20055;-85
2022/07/26 03:53:33;;;;;;;17.87;4.23;;;;;;;16.58;92.09;101259.69;5099177;28;20023;-85
2022/07/26 03:58:42;;;;;;;16.77;4.82;;;;;;;16.58;92.05;101274.25;5119525;28;20082;-85
2022/07/26 04:01:08;;;;;;;19.27;4.47;;;;;;;16.58;92.38;101270.66;5134791;28;20118;-85
2022/07/26 04:03:33;;;;;;;20.90;4.47;;;;;;;16.57;92.23;101275.31;5116716;28;20041;-85
2022/07/26 04:05:59;;;;;;;15.07;4.32;;;;;;;16.57;92.25;101272.56;5115974;28;20043;-85
2022/07/26 04:08:25;;;;;;;25.37;4.60;;;;;;;16.56;92.62;101262.69;5132781;28;20027;-85
2022/07/26 04:10:50;;;;;;;14.30;4.05;;;;;;;16.58;92.53;101268.75;5098931;28;20023;-84
2022/07/26 04:13:17;;;;;;;16.50;4.20;;;;;;;16.61;92.61;101264.72;5099053;28;20039;-84
2022/07/26 04:15:42;;;;;;;15.70;4.20;;;;;;;16.62;92.64;101264.47;5115847;28;20092;-85
2022/07/26 04:18:10;;;;;;;16.80;4.07;;;;;;;16.61;92.47;101265.53;5134851;28;20028;-85
2022/07/26 04:20:36;;;;;;;19.30;4.53;;;;;;;16.65;92.54;101263.09;5134460;28;20046;-85
2022/07/26 04:23:01;;;;;;;16.07;4.37;;;;;;;16.67;92.69;101274.66;5116030;28;20463;-84
2022/07/26 04:25:26;;;;;;;16.03;4.57;;;;;;;16.73;92.10;101275.59;5134140;28;20103;-84
2022/07/26 04:27:52;;;;;;;18.13;4.83;;;;;;;16.73;92.26;101279.16;5132933;28;20035;-85
2022/07/26 04:30:17;;;;;;;17.40;3.90;;;;;;;16.74;92.27;101280.84;5081897;28;20034;-85
2022/07/26 04:32:43;;;;;;;17.27;4.72;;;;;;;16.74;92.21;101282.72;5115758;28;20428;-85
2022/07/26 04:35:09;;;;;;;20.10;4.77;;;;;;;16.73;92.14;101284.66;5134236;28;20149;-85
2022/07/26 04:37:42;;;;;;;19.15;5.05;;;;;;;16.77;92.27;101287.72;5133833;28;20118;-85
2022/07/26 04:40:08;;;;;;;20.77;4.90;;;;;;;16.76;92.43;101292.38;5118585;27;20028;-85
2022/07/26 04:42:34;;;;;;;15.23;4.27;;;;;;;16.76;92.46;101286.06;5137982;27;20035;-85
2022/07/26 04:45:00;;;;;;;19.20;4.90;;;;;;;16.74;92.23;101288.19;5119450;27;20165;-85
2022/07/26 04:47:26;;;;;;;14.10;4.43;;;;;;;16.76;92.20;101284.16;5137731;27;20034;-85
2022/07/26 04:49:51;;;;;;;16.70;5.07;;;;;;;16.75;92.41;101284.41;5137410;27;20375;-85
2022/07/26 04:52:17;;;;;;;10.33;4.50;;;;;;;16.78;92.13;101287.47;5136438;27;20461;-85
2022/07/26 04:54:42;;;;;;;14.80;4.53;;;;;;;16.74;92.51;101290.94;5102359;27;20039;-85
2022/07/26 04:57:07;;;;;;;16.40;4.73;;;;;;;16.73;92.52;101303.81;5116201;27;20055;-85
2022/07/26 04:59:33;;;;;;;20.63;4.97;;;;;;;16.70;nan;101296.09;5085521;27;20486;-85
2022/07/26 05:01:58;;;;;;;16.70;4.57;;;;;;;16.69;93.26;101297.16;5137619;27;20027;-85
2022/07/26 05:04:25;;;;;;;15.83;4.67;;;;;;;16.69;93.06;101299.09;5119179;27;20031;-85
2022/07/26 05:06:50;;;;;;;14.10;4.20;;;;;;;16.61;93.20;101298.41;5119031;27;20487;-85
2022/07/26 05:09:16;;;;;;;13.40;4.20;;;;;;;16.62;93.37;101302.81;5153388;27;20019;-84
2022/07/26 05:11:41;;;;;;;19.70;5.30;;;;;;;16.59;93.82;101303.28;5137153;27;20039;-90
2022/07/26 05:14:06;;;;;;;15.90;4.60;;;;;;;16.69;93.37;101299.09;5102257;27;20438;-86
2022/07/26 05:16:32;;;;;;;15.17;4.57;;;;;;;16.74;93.16;101305.50;5135991;27;20499;-87
2022/07/26 05:18:57;;;;;;;10.70;4.40;;;;;;;16.78;93.14;101317.59;5101814;27;20027;-85
2022/07/26 05:21:23;;;;;;;19.33;4.67;;;;;;;16.83;92.90;101314.16;5118693;27;20066;-87
2022/07/26 05:23:48;;;;;;;17.25;4.70;;;;;;;16.85;92.97;101317.47;5137315;27;20031;-90
2022/07/26 05:26:14;;;;;;;18.53;4.83;;;;;;;16.83;93.37;101322.38;5118125;27;20482;-86
2022/07/26 05:28:39;;;;;;;18.57;5.03;;;;;;;16.86;93.04;101327.34;5118619;27;20030;-87
2022/07/26 05:31:05;;;;;;;16.88;4.88;;;;;;;16.88;93.05;101330.72;5118462;27;20027;-86
2022/07/26 05:33:30;;;;;;;15.57;4.63;;;;;;;16.92;92.50;101331.88;5118368;27;20027;-86
2022/07/26 05:35:56;;;;;;;14.40;4.30;;;;;;;16.97;92.48;101340.19;5101839;27;20034;-86
2022/07/26 05:38:21;;;;;;;16.05;5.20;;;;;;;16.99;92.34;101342.69;5118517;27;20069;-87
2022/07/26 05:40:47;;;;;;;11.87;4.67;;;;;;;17.01;91.99;101332.31;5118162;27;20031;-87
2022/07/26 05:43:12;;;;;;;13.60;5.03;;;;;;;17.03;92.19;101329.31;5101858;27;20128;-86
2022/07/26 05:45:37;;;;;;;17.30;5.33;;;;;;;17.12;91.99;101336.06;5136591;27;20168;-86
2022/07/26 05:48:03;;;;;;;18.88;5.20;;;;;;;17.23;90.93;101335.16;5137071;27;20058;-86
2022/07/26 05:50:29;;;;;;;17.20;4.90;;;;;;;17.36;90.60;101336.72;5100400;27;20390;-86
2022/07/26 05:52:54;;;;;;;18.33;5.37;;;;;;;17.43;89.89;101333.84;5117344;27;20041;-86
2022/07/26 05:55:20;;;;;;;13.82;4.85;;;;;;;17.46;89.10;101345.13;5118266;27;20034;-86
2022/07/26 05:57:48;;;;;;;16.90;4.70;;;;;;;17.60;88.82;101342.03;5118031;27;20070;-86
2022/07/26 06:00:14;;;;;;;24.48;5.25;;;;;;;17.77;87.10;101345.59;5101739;27;20155;-86
2022/07/26 06:02:40;;;;;;;14.95;4.90;;;;;;;17.88;86.46;101346.59;5117844;27;20490;-87
2022/07/26 06:05:06;;;;;;;24.97;5.60;;;;;;;17.85;86.31;101344.38;5117766;27;20551;-87
2022/07/26 06:07:31;;;;;;;15.13;4.93;;;;;;;17.85;86.23;101349.84;5117600;27;20030;-86
2022/07/26 06:09:57;;;;;;;11.10;4.60;;;;;;;17.79;85.58;101340.72;5100752;27;20023;-87
2022/07/26 06:12:22;;;;;;;13.98;4.28;;;;;;;17.77;85.06;101347.53;5136032;27;20091;-86
2022/07/26 06:14:48;;;;;;;14.57;4.47;;;;;;;17.81;86.05;101345.94;5117569;27;20523;-86
2022/07/26 06:17:13;;;;;;;12.13;4.47;;;;;;;17.87;85.52;101351.25;5117536;27;20110;-86
2022/07/26 06:19:39;;;;;;;12.15;4.88;;;;;;;17.93;84.73;101356.84;5100451;27;20035;-86
2022/07/26 06:22:04;;;;;;;10.43;4.70;;;;;;;17.97;84.91;101352.53;5100658;27;20031;-86
2022/07/26 06:24:30;;;;;;;13.00;4.60;;;;;;;18.02;84.10;101358.91;5134395;27;20031;-88
2022/07/26 06:26:56;;;;;;;9.38;4.25;;;;;;;18.07;83.49;101360.91;5117342;27;20153;-87
2022/07/26 06:29:22;;;;;;;13.70;4.53;;;;;;;18.05;81.87;101354.81;5152160;27;20219;-87
2022/07/26 06:31:48;;;;;;;11.52;4.00;;;;;;;18.06;81.11;101357.31;5116923;27;20387;-87
2022/07/26 06:34:14;;;;;;;14.52;4.70;;;;;;;18.09;81.23;101360.66;5135920;27;20104;-87
2022/07/26 06:36:39;;;;;;;8.93;4.20;;;;;;;18.16;81.79;101359.38;5117645;27;20475;-86
2022/07/26 06:39:04;;;;;;;14.48;4.43;;;;;;;18.21;80.63;101364.94;5117302;27;20031;-86
2022/07/26 06:41:30;;;;;;;8.47;3.80;;;;;;;18.18;79.99;101375.59;5135982;27;20023;-85
2022/07/26 06:43:55;;;;;;;11.77;3.60;;;;;;;18.19;79.67;101360.78;5116927;27;20400;-90
2022/07/26 06:46:21;;;;;;;10.97;3.93;;;;;;;18.26;80.92;101357.84;5116991;27;20084;-85
2022/07/26 06:48:47;;;;;;;8.23;3.80;;;;;;;18.33;81.52;101366.75;5135303;27;20042;-87
2022/07/26 06:51:12;;;;;;;12.40;3.83;;;;;;;18.38;80.20;101364.03;5116989;27;20054;-88
2022/07/26 06:53:38;;;;;;;13.90;4.57;;;;;;;18.39;80.36;101373.94;5117170;27;20136;-87
2022/07/26 06:56:03;;;;;;;13.07;4.25;;;;;;;18.44;80.62;101381.41;5117226;27;20106;-87
2022/07/26 06:58:29;;;;;;;13.13;3.70;;;;;;;18.51;80.67;101373.81;5100597;27;20062;-88
2022/07/26 07:00:54;;;;;;;11.20;3.80;;;;;;;18.59;79.75;101382.44;5099999;27;20031;-88
2022/07/26 07:03:20;;;;;;;13.23;3.88;;;;;;;18.66;78.39;101376.78;5135138;27;20068;-88
2022/07/26 07:05:46;;;;;;;9.63;3.27;;;;;;;18.72;77.84;101391.38;5116982;27;20065;-88
2022/07/26 07:08:12;;;;;;;8.65;3.13;;;;;;;18.88;77.27;101396.03;5117730;27;20061;-88
2022/07/26 07:10:38;;;;;;;9.88;3.45;;;;;;;19.02;75.78;101399.19;5116572;27;20063;-88
2022/07/26 07:13:03;;;;;;;7.53;2.77;;;;;;;19.07;74.63;101396.50;5116764;27;20526;-88
2022/07/26 07:15:29;;;;;;;9.73;2.53;;;;;;;19.16;74.68;101404.28;5134645;27;20239;-88
2022/07/26 07:17:54;;;;;;;8.77;2.20;;;;;;;19.27;72.77;101400.53;5099945;27;20023;-88
2022/07/26 07:20:20;;;;;;;6.57;2.17;;;;;;;19.51;73.25;101395.50;5135286;27;20367;-88
2022/07/26 07:22:45;;;;;;;12.97;2.80;;;;;;;19.62;72.07;101390.91;5116915;27;20027;-88
2022/07/26 07:25:10;;;;;;;11.20;2.60;;;;;;;19.65;71.17;101401.44;5134854;27;20074;-88
2022/07/26 07:27:36;;;;;;;9.77;2.10;;;;;;;19.74;70.85;101404.53;5116438;27;20087;-88
2022/07/26 07:30:03;;;;;;;13.67;2.60;;;;;;;19.83;69.75;101407.63;5134662;27;20043;-88
2022/07/26 07:32:29;;;;;;;9.50;2.28;;;;;;;19.99;68.99;101412.16;5134350;27;20077;-88
2022/07/26 07:34:54;;;;;;;11.37;2.60;;;;;;;20.14;68.89;101405.91;5116218;28;20051;-88
2022/07/26 07:37:19;;;;;;;9.13;2.50;;;;;;;20.20;68.65;101395.78;5099396;28;20035;-88
2022/07/26 07:39:45;;;;;;;7.33;2.13;;;;;;;20.22;68.03;101391.63;5134864;27;20553;-88
2022/07/26 07:42:10;;;;;;;5.80;2.27;;;;;;;20.14;67.48;101406.75;5134942;27;20027;-88
2022/07/26 07:44:36;;;;;;;8.87;2.20;;;;;;;20.04;68.12;101403.09;5116077;28;20027;-88
2022/07/26 07:47:01;;;;;;;15.33;2.30;;;;;;;19.98;68.89;101410.50;5134808;28;20028;-88
2022/07/26 07:49:26;;;;;;;12.27;2.60;;;;;;;19.99;68.69;101414.91;5150269;27;20031;-88
2022/07/26 07:51:52;;;;;;;9.00;2.10;;;;;;;20.09;67.65;101403.97;5116026;28;20113;-88
2022/07/26 07:54:17;;;;;;;7.00;2.30;;;;;;;20.16;67.53;101399.03;5098931;28;20107;-88
2022/07/26 07:56:43;;;;;;;7.00;2.40;;;;;;;20.30;67.28;101417.88;5082053;28;20047;-87
2022/07/26 07:59:08;;;;;;;6.33;2.23;;;;;;;20.41;66.94;101403.03;5116044;28;20463;-88
2022/07/26 08:01:33;;;;;;;7.75;2.45;;;;;;;20.56;67.16;101402.25;5115985;28;20035;-88
2022/07/26 08:03:59;;;;;;;5.87;2.20;;;;;;;20.66;65.61;101405.09;5082406;28;20027;-88
2022/07/26 08:06:24;;;;;;;7.70;2.70;;;;;;;20.93;65.10;101408.78;5116172;28;20031;-88
2022/07/26 08:08:50;;;;;;;7.23;2.80;;;;;;;21.09;63.96;101410.47;5116363;28;20471;-88
2022/07/26 08:11:15;;;;;;;6.97;2.97;;;;;;;21.16;63.70;101421.25;5115967;28;20356;-88
2022/07/26 08:13:41;;;;;;;9.63;3.07;;;;;;;20.96;64.66;101431.09;5116153;27;20027;-88
2022/07/26 08:16:06;;;;;;;8.60;3.00;;;;;;;20.52;67.57;101428.69;5102556;27;20088;-88
2022/07/26 08:18:32;;;;;;;5.72;2.55;;;;;;;20.21;70.23;101431.31;5121011;27;20023;-88
2022/07/26 08:20:58;;;;;;;4.47;2.40;;;;;;;20.00;73.04;101438.59;5103142;27;20502;-87
2022/07/26 08:23:23;;;;;;;6.38;1.65;;;;;;;19.95;74.09;101444.06;5102841;27;20477;-87
2022/07/26 08:25:49;;;;;;;2.80;1.30;;;;;;;19.80;74.82;101451.13;5119825;27;20084;-87
2022/07/26 08:28:15;;;;;;;1.60;1.20;;;;;;;19.77;74.77;101456.31;5138302;27;20031;-87
2022/07/26 08:30:41;;;;;;;1.43;0.90;;;;;;;19.73;74.95;101460.66;5137181;27;20035;-88
2022/07/26 08:33:06;;;;;;;5.00;1.17;;;;;;;19.80;74.52;101455.81;5119721;27;20027;-88
2022/07/26 08:35:32;;;;;;;1.83;0.80;;;;;;;19.96;74.67;101462.25;5119728;27;20455;-88
2022/07/26 08:37:57;;;;;;;2.63;0.83;;;;;;;20.06;73.97;101456.81;5138132;27;20059;-88
2022/07/26 08:40:22;;;;;;;1.23;0.70;;;;;;;20.31;74.36;101458.94;5137856;27;20078;-88
2022/07/26 08:42:55;;;;;;;1.60;0.83;;;;;;;20.58;72.88;101470.91;5138330;27;20416;-87
2022/07/26 08:45:29;;;;;;;1.25;0.82;;;;;;;20.79;71.13;101469.94;5085868;27;20355;-87
2022/07/26 08:47:55;;;;;;;1.67;0.90;;;;;;;20.90;70.08;101462.53;5138760;27;20027;-88
2022/07/26 08:50:21;;;;;;;1.42;0.93;;;;;;;21.13;69.33;101461.25;5136691;27;20027;-87
2022/07/26 08:52:47;;;;;;;1.25;0.63;;;;;;;21.40;67.31;101462.94;5120110;27;20035;-88
2022/07/26 08:55:19;;;;;;;1.13;0.73;;;;;;;21.41;67.46;101466.53;5119362;27;20027;-88
2022/07/26 08:57:45;;;;;;;0.95;0.85;;;;;;;21.41;65.91;101472.91;5118966;27;20132;-88
2022/07/26 09:00:21;;;;;;;1.63;0.70;;;;;;;21.37;66.68;101464.31;5102291;27;20041;-88
2022/07/26 09:02:47;;;;;;;1.10;0.77;;;;;;;21.54;66.41;101464.09;5137417;27;20279;-87
2022/07/26 09:05:14;;;;;;;1.25;0.80;;;;;;;21.72;65.17;101465.50;5137778;27;20027;-88
2022/07/26 09:07:40;;;;;;;2.13;0.80;;;;;;;21.87;63.11;101466.59;5119334;27;20050;-88
2022/07/26 09:10:08;;;;;;;2.75;1.10;;;;;;;21.95;63.27;101476.28;5119162;27;20035;-88
2022/07/26 09:12:34;;;;;;;2.10;0.90;;;;;;;22.14;62.66;101471.00;5153193;27;20030;-88
2022/07/26 09:15:01;;;;;;;1.90;1.00;;;;;;;22.65;60.38;101468.16;5119401;27;20031;-88
2022/07/26 09:17:43;;;;;;;1.60;1.05;;;;;;;22.85;58.96;101460.88;5102035;27;20108;-87
2022/07/26 09:20:09;;;;;;;1.60;0.90;;;;;;;22.67;59.75;101476.16;5119197;27;20038;-88
2022/07/26 09:22:36;;;;;;;1.50;0.88;;;;;;;22.83;59.06;101474.16;5119138;27;20390;-88
2022/07/26 09:25:02;;;;;;;1.30;0.83;;;;;;;23.05;59.75;101471.84;5137004;27;20031;-89
2022/07/26 09:27:35;;;;;;;3.10;1.20;;;;;;;23.27;59.83;101477.00;5118788;27;20027;-88
2022/07/26 09:30:06;;;;;;;1.80;1.27;;;;;;;23.38;58.48;101480.53;5136741;27;20467;-88
2022/07/26 09:32:31;;;;;;;1.70;1.00;;;;;;;23.30;58.68;101479.19;5118525;27;20029;-88
2022/07/26 09:35:12;;;;;;;2.97;1.03;;;;;;;23.22;59.54;101478.97;5118974;27;20031;-89
2022/07/26 09:37:39;;;;;;;1.85;1.27;;;;;;;22.89;60.60;101487.69;5119321;27;20020;-88
2022/07/26 09:40:08;;;;;;;2.10;1.20;;;;;;;22.70;60.93;101490.25;5118406;27;20072;-89
2022/07/26 09:42:34;;;;;;;4.97;1.42;;;;;;;22.71;61.05;101497.44;5136574;27;20493;-88
2022/07/26 09:45:00;;;;;;;3.57;1.60;;;;;;;22.97;59.50;101502.84;5118548;27;20027;-89
2022/07/26 09:47:39;;;;;;;3.65;1.50;;;;;;;23.67;58.87;101503.91;5119070;27;20114;-88
2022/07/26 09:50:22;;;;;;;5.28;1.48;;;;;;;24.25;56.35;101508.69;5102483;27;20127;-88
2022/07/26 09:53:06;;;;;;;5.13;1.45;;;;;;;24.47;56.04;101499.88;5120178;27;20035;-89
2022/07/26 09:55:34;;;;;;;3.00;1.67;;;;;;;24.29;54.28;101505.03;5138261;27;20034;-89
2022/07/26 09:58:05;;;;;;;5.63;1.90;;;;;;;24.29;53.63;101510.59;5120505;27;20055;-89
2022/07/26 10:00:31;;;;;;;3.15;1.50;;;;;;;24.57;53.86;101510.88;5120664;27;20099;-89
2022/07/26 10:02:57;;;;;;;7.13;1.60;;;;;;;24.67;52.82;101507.16;5120463;27;20034;-89
2022/07/26 10:05:23;;;;;;;3.42;1.70;;;;;;;24.55;52.08;101512.28;5120745;27;20041;-92
2022/07/26 10:07:50;;;;;;;6.17;1.77;;;;;;;24.16;53.57;101516.81;5121006;27;20130;-91
2022/07/26 10:10:21;;;;;;;4.38;1.60;;;;;;;23.78;54.14;101520.16;5138843;27;20072;-89
2022/07/26 10:12:50;;;;;;;5.75;1.25;;;;;;;23.38;54.52;101522.06;5120594;27;20122;-88
2022/07/26 10:15:37;;;;;;;2.45;1.65;;;;;;;23.02;56.66;101533.28;5118247;27;20026;-89
2022/07/26 10:18:04;;;;;;;2.47;1.20;;;;;;;22.52;58.82;101535.94;5136650;27;20015;-88
2022/07/26 10:20:50;;;;;;;3.13;1.00;;;;;;;22.31;60.34;101528.72;5117832;27;20082;-88
2022/07/26 10:23:57;;;;;;;2.72;0.80;;;;;;;22.14;61.51;101535.38;5136392;27;20100;-89
2022/07/26 10:26:32;;;;;;;2.55;1.00;;;;;;;22.23;61.24;101542.03;5108476;27;20055;-88
2022/07/26 10:29:25;;;;;;;3.40;1.20;;;;;;;22.53;60.54;101551.41;5117883;27;20023;-89
2022/07/26 10:31:59;;;;;;;1.90;1.20;;;;;;;22.70;60.80;101542.78;5109495;27;20043;-89
2022/07/26 10:34:36;;;;;;;1.85;1.10;;;;;;;23.28;59.39;101553.41;5136384;27;20023;-88
2022/07/26 10:37:04;;;;;;;2.00;1.20;;;;;;;23.78;56.44;101544.25;5135328;27;20478;-88
2022/07/26 10:39:30;;;;;;;3.58;1.30;;;;;;;24.30;55.28;101541.91;5117722;27;20027;-89
2022/07/26 10:41:59;;;;;;;2.00;1.10;;;;;;;24.69;50.16;101549.31;5136279;27;20121;-89
2022/07/26 10:44:26;;;;;;;4.28;1.27;;;;;;;25.00;48.89;101546.19;5136189;27;20019;-88
2022/07/26 10:46:55;;;;;;;3.72;1.15;;;;;;;25.51;47.59;101547.47;5117746;27;20027;-89
2022/07/26 10:49:29;;;;;;;4.77;1.00;;;;;;;25.91;46.69;101548.00;5137778;27;20027;-88
2022/07/26 10:52:09;;;;;;;3.55;1.25;;;;;;;26.32;46.16;101552.06;5138028;27;20542;-89
2022/07/26 10:55:03;;;;;;;3.33;1.20;;;;;;;26.88;46.61;101551.03;5118413;27;20019;-89
2022/07/26 10:57:30;;;;;;;2.47;0.93;;;;;;;26.98;43.89;101551.97;5119502;27;20039;-88
2022/07/26 10:59:57;;;;;;;4.97;1.10;;;;;;;26.81;43.76;101558.13;5118923;27;20054;-89
2022/07/26 11:02:27;;;;;;;1.77;0.87;;;;;;;27.00;43.45;101561.63;5136813;27;20518;-89
2022/07/26 11:04:59;;;;;;;2.63;1.02;;;;;;;27.03;43.91;101565.78;5137636;27;20023;-89
2022/07/26 11:07:26;;;;;;;3.35;1.10;;;;;;;26.94;42.48;101566.50;5118738;27;20030;-90
2022/07/26 11:09:59;;;;;;;3.30;1.00;;;;;;;26.69;43.88;101578.97;5137010;27;20037;-89
2022/07/26 11:12:25;;;;;;;3.00;1.30;;;;;;;26.38;45.21;101581.44;5100219;27;20042;-88
2022/07/26 11:14:52;;;;;;;2.80;1.30;;;;;;;25.83;47.85;101584.81;5135311;27;20459;-88
2022/07/26 11:17:29;;;;;;;3.97;1.20;;;;;;;25.25;50.80;101591.44;5135061;27;20027;-88
2022/07/26 11:19:56;;;;;;;4.97;1.65;;;;;;;24.32;53.97;101595.97;5116732;27;20072;-88
2022/07/26 11:22:33;;;;;;;3.42;1.25;;;;;;;23.88;57.23;101591.31;5116949;27;20027;-88
2022/07/26 11:24:58;;;;;;;4.10;1.30;;;;;;;23.58;60.52;101597.84;5117076;27;20023;-88